Time;durP1;ratioP1;P1;durP2;ratioP2;P2;SDS_P1;SDS_P2;PMS_P1;PMS_P2;Temp;Humidity;BMP_temperature;BMP_pressure;BME280_temperature;BME280_humidity;BME280_pressure;Samples;Min_cycle;Max_cycle;Signal;HPM_P1;HPM_P2
2023/04/25 00:01:48;;;;;;;21.38;4.00;;;;;;;;;;4877985;29;20048;-68
2023/04/25 00:04:14;;;;;;;18.17;3.60;;;;;;;;;;4885183;29;20048;-68
2023/04/25 00:06:40;;;;;;;26.92;3.78;;;;;;;;;;4884676;29;20040;-68
2023/04/25 00:09:08;;;;;;;13.48;3.05;;;;;;;;;;4900726;29;20036;-67
2023/04/25 00:11:35;;;;;;;30.35;3.85;;;;;;;;;;4884157;29;20068;-68
2023/04/25 00:14:02;;;;;;;18.17;3.47;;;;;;;;;;4883929;29;20505;-67
2023/04/25 00:16:29;;;;;;;20.60;4.55;;;;;;;;;;4891782;29;20410;-68
2023/04/25 00:18:56;;;;;;;18.85;3.90;;;;;;;;;;4902190;29;20040;-68
2023/04/25 00:21:24;;;;;;;18.92;3.60;;;7.00;99.90;;;;;;4919508;29;20086;-68
2023/04/25 00:23:50;;;;;;;18.90;3.67;;;;;;;;;;4902673;29;20044;-69
2023/04/25 00:26:16;;;;;;;26.15;3.28;;;;;;;;;;4902031;29;20072;-68
2023/04/25 00:28:42;;;;;;;23.98;3.40;;;;;;;;;;4919759;29;20040;-68
2023/04/25 00:31:08;;;;;;;21.33;3.28;;;;;;;;;;4919432;29;20048;-68
2023/04/25 00:33:34;;;;;;;22.55;3.97;;;;;;;;;;4902239;29;20055;-68
2023/04/25 00:36:00;;;;;;;17.33;3.00;;;;;;;;;;4901726;29;20437;-68
2023/04/25 00:38:26;;;;;;;14.63;3.40;;;;;;;;;;4919071;29;20385;-68
2023/04/25 00:40:52;;;;;;;12.93;3.00;;;;;;;;;;4902137;29;20179;-68
2023/04/25 00:43:19;;;;;;;18.70;3.33;;;;;;;;;;4886467;29;20485;-69
2023/04/25 00:45:48;;;;;;;14.45;3.47;;;7.10;99.90;;;;;;4886472;29;20441;-68
2023/04/25 00:48:14;;;;;;;17.55;3.03;;;;;;;;;;4902029;29;20044;-68
2023/04/25 00:50:41;;;;;;;21.75;3.40;;;;;;;;;;4869230;29;20127;-69
2023/04/25 00:53:09;;;;;;;27.23;3.60;;;;;;;;;;4889311;29;20044;-68
2023/04/25 00:55:36;;;;;;;16.63;3.00;;;;;;;;;;4901574;29;20083;-68
2023/04/25 00:58:02;;;;;;;15.73;3.22;;;;;;;;;;4902174;29;20051;-68
2023/04/25 01:00:28;;;;;;;12.05;3.17;;;;;;;;;;4869370;29;20044;-67
2023/04/25 01:02:54;;;;;;;19.42;3.00;;;;;;;;;;4876931;29;20044;-68
2023/04/25 01:05:20;;;;;;;17.17;2.78;;;;;;;;;;4883113;29;20051;-68
2023/04/25 01:07:47;;;;;;;24.63;3.30;;;;;;;;;;4867835;29;20119;-69
2023/04/25 01:10:12;;;;;;;25.88;3.58;;;7.90;99.90;;;;;;4899720;29;20068;-69
2023/04/25 01:12:39;;;;;;;21.35;2.95;;;;;;;;;;4882821;29;20040;-69
2023/04/25 01:15:05;;;;;;;24.08;4.35;;;8.00;99.90;;;;;;4886514;29;20044;-69
2023/04/25 01:17:31;;;;;;;20.95;4.22;;;;;;;;;;4901591;29;20076;-69
2023/04/25 01:19:58;;;;;;;10.68;2.60;;;;;;;;;;4918166;29;20138;-68
2023/04/25 01:22:24;;;;;;;15.07;2.67;;;;;;;;;;4894254;29;20503;-69
2023/04/25 01:24:50;;;;;;;14.32;2.25;;;;;;;;;;4882525;29;20128;-68
2023/04/25 01:27:16;;;;;;;11.77;2.88;;;;;;;;;;4915447;29;20051;-69
2023/04/25 01:29:43;;;;;;;16.33;2.78;;;;;;;;;;4900894;29;20044;-69
2023/04/25 01:32:09;;;;;;;13.32;2.72;;;7.30;99.90;;;;;;4918292;29;20492;-68
2023/04/25 01:34:35;;;;;;;12.55;2.97;;;;;;;;;;4901254;29;20493;-68
2023/04/25 01:37:01;;;;;;;9.02;2.67;;;;;;;;;;4867086;29;20059;-68
2023/04/25 01:39:28;;;;;;;10.07;2.47;;;;;;;;;;4867197;29;20099;-69
2023/04/25 01:41:54;;;;;;;12.18;2.85;;;;;;;;;;4866801;29;20083;-69
2023/04/25 01:44:20;;;;;;;6.20;2.38;;;;;;;;;;4888709;29;20044;-69
2023/04/25 01:46:46;;;;;;;7.45;2.05;;;;;;;;;;4882619;29;20041;-69
2023/04/25 01:49:12;;;;;;;8.38;2.20;;;;;;;;;;4899230;29;20057;-69
2023/04/25 01:51:38;;;;;;;12.48;2.20;;;;;;;;;;4877596;29;20370;-69
2023/04/25 01:54:04;;;;;;;8.63;2.22;;;;;;;;;;4899284;29;20052;-69
2023/04/25 01:56:31;;;;;;;10.50;2.70;;;6.40;99.90;;;;;;4917625;29;20079;-69
2023/04/25 01:58:58;;;;;;;12.98;2.70;;;;;;;;;;4908110;29;20041;-68
2023/04/25 02:01:24;;;;;;;16.27;2.50;;;;;;;;;;4898837;29;20037;-68
2023/04/25 02:03:50;;;;;;;12.73;3.70;;;;;;;;;;4898177;29;20529;-68
2023/04/25 02:06:16;;;;;;;12.20;2.55;;;;;;;;;;4882101;29;20045;-68
2023/04/25 02:08:42;;;;;;;16.08;3.08;;;;;;;;;;4866323;29;20529;-68
2023/04/25 02:11:08;;;;;;;21.25;3.13;;;;;;;;;;4882292;29;20044;-69
2023/04/25 02:13:34;;;;;;;13.00;2.40;;;;;;;;;;4890480;29;20052;-69
2023/04/25 02:16:00;;;;;;;17.95;3.85;;;;;;;;;;4891317;29;20043;-69
2023/04/25 02:18:26;;;;;;;9.88;2.92;;;;;;;;;;4885277;29;20168;-69
2023/04/25 02:20:52;;;;;;;15.15;3.00;;;;;;;;;;4898879;29;20064;-69
2023/04/25 02:23:19;;;;;;;16.00;2.95;;;;;;;;;;4888467;29;20048;-68
2023/04/25 02:25:45;;;;;;;13.65;2.72;;;;;;;;;;4900398;29;20076;-69
2023/04/25 02:28:11;;;;;;;11.20;2.85;;;;;;;;;;4900128;29;20123;-68
2023/04/25 02:30:37;;;;;;;12.82;3.00;;;;;;;;;;4917356;29;20044;-68
2023/04/25 02:33:04;;;;;;;18.13;2.67;;;;;;;;;;4900016;29;20084;-68
2023/04/25 02:35:30;;;;;;;13.63;2.60;;;;;;;;;;4900197;29;20051;-67
2023/04/25 02:37:56;;;;;;;11.95;3.00;;;;;;;;;;4900235;29;20103;-67
2023/04/25 02:40:22;;;;;;;7.82;2.00;;;;;;;;;;4916942;29;20051;-67
2023/04/25 02:42:48;;;;;;;10.32;2.53;;;;;;;;;;4884348;29;20044;-67
2023/04/25 02:45:14;;;;;;;8.77;1.80;;;;;;;;;;4893276;29;20033;-66
2023/04/25 02:47:41;;;;;;;11.02;2.17;;;;;;;;;;4882791;29;20556;-67
2023/04/25 02:50:07;;;;;;;11.52;2.30;;;;;;;;;;4881160;29;20041;-67
2023/04/25 02:52:33;;;;;;;9.57;2.47;;;;;;;;;;4875366;29;20119;-67
2023/04/25 02:54:59;;;;;;;11.98;2.22;;;;;;;;;;4874866;29;20048;-66
2023/04/25 02:57:25;;;;;;;24.75;3.72;;;;;;;;;;4850381;29;20473;-69
2023/04/25 02:59:51;;;;;;;15.63;2.47;;;;;;;;;;4881427;29;20064;-69
2023/04/25 03:02:17;;;;;;;10.40;2.13;;;;;;;;;;4897897;29;20047;-69
2023/04/25 03:04:43;;;;;;;15.13;2.90;;;;;;;;;;4867899;29;20040;-69
2023/04/25 03:07:10;;;;;;;13.98;2.75;;;6.10;99.90;;;;;;4901428;29;20040;-69
2023/04/25 03:09:36;;;;;;;16.48;2.72;;;;;;;;;;4879848;29;20040;-68
2023/04/25 03:12:02;;;;;;;12.20;2.53;;;;;;;;;;4886925;29;20045;-68
2023/04/25 03:14:29;;;;;;;12.00;2.50;;;;;;;;;;4912887;29;20043;-68
2023/04/25 03:16:55;;;;;;;11.55;2.63;;;;;;;;;;4883702;29;20040;-67
2023/04/25 03:19:22;;;;;;;16.48;4.05;;;;;;;;;;4884725;29;20052;-67
2023/04/25 03:21:48;;;;;;;15.50;2.58;;;;;;;;;;4901920;29;20060;-68
2023/04/25 03:24:15;;;;;;;19.95;2.80;;;;;;;;;;4884984;29;20182;-68
2023/04/25 03:26:41;;;;;;;16.67;3.97;;;;;;;;;;4885088;29;20045;-67
2023/04/25 03:29:07;;;;;;;16.38;2.78;;;;;;;;;;4911201;29;20079;-67
2023/04/25 03:31:33;;;;;;;17.27;3.13;;;;;;;;;;4887136;29;20043;-68
2023/04/25 03:33:59;;;;;;;11.55;1.80;;;;;;;;;;4903515;29;20131;-68
2023/04/25 03:36:25;;;;;;;10.82;2.00;;;;;;;;;;4901514;29;20078;-68
2023/04/25 03:38:51;;;;;;;15.38;2.20;;;;;;;;;;4887349;29;20476;-68
2023/04/25 03:41:17;;;;;;;7.32;2.30;;;;;;;;;;4889064;29;20444;-68
2023/04/25 03:43:43;;;;;;;8.35;2.10;;;;;;;;;;4901350;29;20076;-68
2023/04/25 03:46:09;;;;;;;12.95;3.47;;;;;;;;;;4913494;29;20044;-68
2023/04/25 03:48:35;;;;;;;9.25;2.20;;;;;;;;;;4903272;29;20044;-68
2023/04/25 03:51:02;;;;;;;13.63;2.35;;;;;;;;;;4920000;29;20381;-68
2023/04/25 03:53:28;;;;;;;8.65;2.13;;;;;;;;;;4903549;29;20087;-69
2023/04/25 03:55:54;;;;;;;16.95;2.97;;;;;;;;;;4891785;29;20076;-69
2023/04/25 03:58:20;;;;;;;12.00;2.65;;;;;;;;;;4907687;29;20087;-69
2023/04/25 04:00:46;;;;;;;8.82;2.22;;;;;;;;;;4912030;29;20449;-69
2023/04/25 04:03:13;;;;;;;15.90;2.55;;;;;;;;;;4900797;29;20044;-69
2023/04/25 04:05:40;;;;;;;11.25;2.78;;;;;;;;;;4890331;29;20040;-69
2023/04/25 04:08:07;;;;;;;11.02;2.20;;;;;;;;;;4919188;29;20040;-69
2023/04/25 04:10:33;;;;;;;9.25;2.22;;;;;;;;;;4885993;29;20095;-69
2023/04/25 04:12:58;;;;;;;15.35;2.88;;;6.60;99.90;;;;;;4886887;29;20048;-69
2023/04/25 04:15:24;;;;;;;14.07;2.47;;;;;;;;;;4896755;29;20039;-68
2023/04/25 04:17:50;;;;;;;11.43;2.28;;;;;;;;;;4902841;29;20044;-68
2023/04/25 04:20:16;;;;;;;14.57;2.08;;;;;;;;;;4899888;29;20056;-68
2023/04/25 04:22:43;;;;;;;11.27;2.63;;;;;;;;;;4902853;29;20123;-67
2023/04/25 04:25:09;;;;;;;13.25;2.35;;;6.90;99.90;;;;;;4886940;29;20055;-67
2023/04/25 04:27:35;;;;;;;8.90;2.67;;;;;;;;;;4886243;29;20044;-67
2023/04/25 04:30:03;;;;;;;9.10;2.38;;;;;;;;;;4886924;29;20127;-67
2023/04/25 04:32:30;;;;;;;8.75;2.33;;;;;;;;;;4902320;29;20060;-67
2023/04/25 04:34:56;;;;;;;10.02;1.95;;;;;;;;;;4902365;29;20088;-67
2023/04/25 04:37:22;;;;;;;8.70;1.90;;;;;;;;;;4903455;29;20047;-67
2023/04/25 04:39:48;;;;;;;7.43;2.03;;;;;;;;;;4900188;29;20037;-68
2023/04/25 04:42:15;;;;;;;17.25;2.53;;;;;;;;;;4885212;29;20115;-67
2023/04/25 04:44:41;;;;;;;11.82;2.60;;;;;;;;;;4902210;29;20067;-67
2023/04/25 04:47:07;;;;;;;12.52;2.42;;;;;;;;;;4905965;29;20050;-67
2023/04/25 04:49:33;;;;;;;11.63;2.20;;;6.20;99.90;;;;;;4883439;29;20045;-67
2023/04/25 04:52:00;;;;;;;5.03;1.75;;;;;;;;;;4900237;29;20052;-68
2023/04/25 04:54:26;;;;;;;7.93;2.58;;;;;;;;;;4886514;29;20076;-67
2023/04/25 04:56:53;;;;;;;9.15;2.10;;;;;;;;;;4901491;29;20396;-68
2023/04/25 04:59:19;;;;;;;9.15;1.90;;;;;;;;;;4901890;29;20054;-67
2023/04/25 05:01:46;;;;;;;4.80;1.80;;;;;;;;;;4901656;29;20060;-67
2023/04/25 05:04:12;;;;;;;11.45;2.63;;;;;;;;;;4918793;29;20516;-67
2023/04/25 05:06:38;;;;;;;9.73;2.10;;;;;;;;;;4898742;29;20060;-67
2023/04/25 05:09:05;;;;;;;10.95;2.20;;;;;;;;;;4887406;29;20508;-67
2023/04/25 05:11:31;;;;;;;19.73;3.15;;;;;;;;;;4888847;29;20158;-68
2023/04/25 05:13:57;;;;;;;11.68;2.22;;;;;;;;;;4886452;29;20083;-68
2023/04/25 05:16:23;;;;;;;6.70;1.75;;;;;;;;;;4890784;29;20048;-68
2023/04/25 05:18:49;;;;;;;9.48;1.92;;;;;;;;;;4882855;29;20048;-68
2023/04/25 05:21:16;;;;;;;10.82;1.98;;;;;;;;;;4867481;29;20067;-68
2023/04/25 05:23:42;;;;;;;9.60;2.50;;;;;;;;;;4891012;29;20055;-68
2023/04/25 05:26:13;;;;;;;17.02;2.53;;;;;;;;;;4871134;29;20043;-68
2023/04/25 05:28:40;;;;;;;17.13;2.47;;;;;;;;;;4889311;29;20075;-68
2023/04/25 05:31:06;;;;;;;7.82;1.95;;;;;;;;;;4885652;29;20047;-68
2023/04/25 05:33:32;;;;;;;10.68;2.35;;;;;;;;;;4891442;29;20144;-68
2023/04/25 05:35:58;;;;;;;10.38;2.45;;;;;;;;;;4882896;29;20071;-68
2023/04/25 05:38:25;;;;;;;11.27;2.35;;;;;;;;;;4898716;29;20074;-67
2023/04/25 05:40:51;;;;;;;18.58;3.22;;;;;;;;;;4899037;29;20045;-68
2023/04/25 05:43:17;;;;;;;13.75;3.05;;;;;;;;;;4882599;29;20183;-68
2023/04/25 05:45:43;;;;;;;13.95;1.90;;;;;;;;;;4892337;29;20047;-68
2023/04/25 05:48:09;;;;;;;7.75;1.70;;;;;;;;;;4906662;29;20044;-68
2023/04/25 05:50:35;;;;;;;6.00;1.50;;;;;;;;;;4891869;29;20052;-68
2023/04/25 05:53:02;;;;;;;3.45;1.38;;;;;;;;;;4891519;29;20044;-68
2023/04/25 05:55:28;;;;;;;4.20;2.35;;;;;;;;;;4906836;29;20052;-68
2023/04/25 05:57:54;;;;;;;3.08;1.40;;;;;;;;;;4891611;29;20036;-68
2023/04/25 06:00:22;;;;;;;7.30;1.65;;;;;;;;;;4891521;29;20040;-68
2023/04/25 06:02:48;;;;;;;2.95;1.23;;;;;;;;;;4889867;29;20485;-68
2023/04/25 06:05:14;;;;;;;7.03;1.90;;;;;;;;;;4891327;29;20127;-68
2023/04/25 06:07:40;;;;;;;4.43;1.60;;;;;;;;;;4891518;29;20076;-68
2023/04/25 06:10:07;;;;;;;7.15;1.40;;;;;;;;;;4889837;29;20036;-68
2023/04/25 06:12:33;;;;;;;9.73;1.50;;;;;;;;;;4876047;29;20044;-68
2023/04/25 06:15:00;;;;;;;8.40;1.80;;;5.80;99.90;;;;;;4907743;29;20044;-69
2023/04/25 06:17:26;;;;;;;13.63;2.08;;;;;;;;;;4906681;29;20041;-68
2023/04/25 06:19:52;;;;;;;7.93;2.15;;;;;;;;;;4891522;29;20044;-68
2023/04/25 06:22:18;;;;;;;7.38;1.63;;;;;;;;;;4876056;29;20048;-68
2023/04/25 06:24:45;;;;;;;9.07;1.98;;;;;;;;;;4891493;29;20131;-68
2023/04/25 06:27:11;;;;;;;8.18;1.63;;;;;;;;;;4887326;29;20033;-67
2023/04/25 06:29:37;;;;;;;8.65;2.08;;;;;;;;;;4868448;29;20489;-67
2023/04/25 06:32:04;;;;;;;7.10;1.90;;;;;;;;;;4881140;29;20052;-68
2023/04/25 06:34:30;;;;;;;8.60;2.08;;;;;;;;;;4862904;29;20081;-67
2023/04/25 06:36:56;;;;;;;12.48;3.17;;;;;;;;;;4897905;29;20096;-67
2023/04/25 06:39:23;;;;;;;10.30;2.03;;;;;;;;;;4880998;29;20064;-68
2023/04/25 06:41:49;;;;;;;9.90;2.30;;;;;;;;;;4873513;29;20056;-68
2023/04/25 06:44:15;;;;;;;12.68;1.92;;;;;;;;;;4898011;29;20080;-68
2023/04/25 06:46:41;;;;;;;12.75;1.90;;;;;;;;;;4871047;29;20050;-68
2023/04/25 06:49:07;;;;;;;9.68;2.20;;;;;;;;;;4864965;29;20073;-69
2023/04/25 06:51:33;;;;;;;10.88;2.15;;;;;;;;;;4875543;29;20040;-69
2023/04/25 06:54:00;;;;;;;11.30;3.35;;;;;;;;;;4897693;29;20394;-69
2023/04/25 06:56:26;;;;;;;7.75;2.15;;;;;;;;;;4880838;29;20032;-69
2023/04/25 06:58:52;;;;;;;7.53;1.80;;;;;;;;;;4862964;29;20484;-69
2023/04/25 07:01:18;;;;;;;9.80;1.70;;;;;;;;;;4903415;29;20369;-68
2023/04/25 07:03:44;;;;;;;18.98;2.83;;;;;;;;;;4888092;29;20132;-68
2023/04/25 07:06:10;;;;;;;10.18;1.92;;;;;;;;;;4882422;29;20505;-68
2023/04/25 07:08:36;;;;;;;14.88;2.00;;;;;;;;;;4901569;29;20037;-68
2023/04/25 07:11:02;;;;;;;8.00;2.25;;;;;;;;;;4901659;29;20104;-68
2023/04/25 07:13:28;;;;;;;8.75;1.83;;;;;;;;;;4892337;29;20047;-68
2023/04/25 07:15:55;;;;;;;6.97;1.80;;;;;;;;;;4891591;29;20052;-67
2023/04/25 07:18:21;;;;;;;13.18;2.00;;;;;;;;;;4892683;29;20142;-68
2023/04/25 07:20:48;;;;;;;11.63;2.05;;;;;;;;;;4882266;29;20059;-67
2023/04/25 07:23:14;;;;;;;9.77;2.05;;;;;;;;;;4871797;29;20044;-68
2023/04/25 07:25:40;;;;;;;7.82;1.90;;;;;;;;;;4866901;29;20086;-67
2023/04/25 07:28:06;;;;;;;9.15;2.00;;;;;;;;;;4902363;29;20509;-68
2023/04/25 07:30:32;;;;;;;9.90;2.70;;;;;;;;;;4887925;29;20044;-67
2023/04/25 07:32:58;;;;;;;16.58;2.33;;;;;;;;;;4889095;29;20048;-68
2023/04/25 07:35:24;;;;;;;10.70;2.08;;;;;;;;;;4882097;29;20088;-68
2023/04/25 07:37:50;;;;;;;8.55;1.70;;;;;;;;;;4887526;29;20512;-69
2023/04/25 07:40:17;;;;;;;7.57;1.80;;;;;;;;;;4896650;29;20051;-68
2023/04/25 07:42:43;;;;;;;10.80;1.90;;;;;;;;;;4909428;29;20045;-68
2023/04/25 07:45:09;;;;;;;10.48;2.42;;;;;;;;;;4890442;29;20045;-68
2023/04/25 07:47:36;;;;;;;12.93;1.70;;;;;;;;;;4897962;29;20452;-68
2023/04/25 07:50:02;;;;;;;14.50;2.10;;;;;;;;;;4884237;29;20059;-68
2023/04/25 07:52:28;;;;;;;8.48;2.00;;;;;;;;;;4867752;29;20068;-68
2023/04/25 07:54:54;;;;;;;13.07;2.80;;;;;;;;;;4887520;29;20040;-69
2023/04/25 07:57:20;;;;;;;8.65;1.83;;;;;;;;;;4866473;29;20072;-73
2023/04/25 07:59:46;;;;;;;6.28;1.73;;;;;;;;;;4880852;29;20052;-69
2023/04/25 08:02:13;;;;;;;9.90;2.10;;;;;;;;;;4895183;29;20501;-69
2023/04/25 08:04:39;;;;;;;7.05;1.73;;;;;;;;;;4884196;29;20062;-68
2023/04/25 08:07:05;;;;;;;7.95;1.70;;;;;;;;;;4872392;29;20079;-69
2023/04/25 08:09:34;;;;;;;18.08;2.28;;;;;;;;;;4900795;29;20545;-69
2023/04/25 08:12:01;;;;;;;9.93;2.42;;;;;;;;;;4880395;29;20051;-68
2023/04/25 08:14:28;;;;;;;5.60;1.35;;;;;;;;;;4916767;29;20497;-69
2023/04/25 08:16:55;;;;;;;5.53;1.63;;;;;;;;;;4907501;29;20157;-69
2023/04/25 08:19:21;;;;;;;15.95;2.75;;;;;;;;;;4884974;29;20056;-69
2023/04/25 08:21:47;;;;;;;9.32;2.40;;;;;;;;;;4907705;29;20484;-68
2023/04/25 08:24:13;;;;;;;12.98;1.98;;;;;;;;;;4899594;29;20051;-69
2023/04/25 08:26:41;;;;;;;17.00;2.05;;;;;;;;;;4877123;29;20041;-68
2023/04/25 08:29:07;;;;;;;10.65;2.13;;;;;;;;;;4895247;29;20070;-68
2023/04/25 08:31:33;;;;;;;15.20;2.58;;;;;;;;;;4881017;29;20040;-69
2023/04/25 08:33:59;;;;;;;15.40;2.00;;;;;;;;;;4883361;29;20051;-69
2023/04/25 08:36:25;;;;;;;9.95;2.15;;;;;;;;;;4884541;29;20050;-68
2023/04/25 08:38:51;;;;;;;9.57;2.00;;;;;;;;;;4902097;29;20489;-67
2023/04/25 08:41:18;;;;;;;9.60;1.95;;;;;;;;;;4912835;29;20029;-69
2023/04/25 08:43:45;;;;;;;5.25;1.50;;;8.00;99.90;;;;;;4898904;29;20045;-68
2023/04/25 08:46:12;;;;;;;6.18;1.63;;;;;;;;;;4888163;29;20454;-68
2023/04/25 08:48:40;;;;;;;7.97;2.15;;;;;;;;;;4883914;29;20052;-68
2023/04/25 08:51:08;;;;;;;9.95;1.70;;;;;;;;;;4868307;29;20123;-68
2023/04/25 08:53:34;;;;;;;8.43;1.70;;;;;;;;;;4900178;29;20081;-67
2023/04/25 08:56:01;;;;;;;12.18;2.28;;;;;;;;;;4884809;29;20080;-68
2023/04/25 08:58:28;;;;;;;9.27;2.25;;;8.10;99.90;;;;;;4887106;29;20036;-68
2023/04/25 09:00:54;;;;;;;9.98;2.55;;;;;;;;;;4867700;29;20048;-68
2023/04/25 09:03:20;;;;;;;9.68;2.85;;;;;;;;;;4899774;29;20405;-68
2023/04/25 09:05:47;;;;;;;8.93;2.25;;;;;;;;;;4884072;29;20043;-69
2023/04/25 09:08:13;;;;;;;6.45;1.85;;;;;;;;;;4883999;29;20490;-69
2023/04/25 09:10:39;;;;;;;6.13;1.63;;;;;;;;;;4868027;29;20044;-69
2023/04/25 09:13:12;;;;;;;7.93;1.88;;;8.50;99.90;;;;;;4902811;29;20051;-69
2023/04/25 09:15:52;;;;;;;9.73;2.13;;;8.60;99.90;;;;;;4885636;29;20048;-69
2023/04/25 09:18:28;;;;;;;6.53;1.70;;;;;;;;;;4911108;29;20515;-69
2023/04/25 09:20:55;;;;;;;8.52;1.77;;;;;;;;;;4887187;29;20479;-69
2023/04/25 09:23:22;;;;;;;11.10;1.98;;;;;;;;;;4893370;29;20053;-69
2023/04/25 09:25:49;;;;;;;8.98;2.25;;;;;;;;;;4881023;29;20044;-68
2023/04/25 09:28:15;;;;;;;10.55;2.80;;;;;;;;;;4903937;29;20056;-69
2023/04/25 09:30:41;;;;;;;8.20;1.80;;;;;;;;;;4882199;29;20401;-68
2023/04/25 09:33:08;;;;;;;9.80;1.70;;;;;;;;;;4887517;29;20044;-69
2023/04/25 09:35:42;;;;;;;11.55;2.65;;;9.00;99.90;;;;;;4905753;29;20441;-69
2023/04/25 09:38:09;;;;;;;10.43;2.30;;;8.80;99.90;;;;;;4905311;29;20036;-68
2023/04/25 09:40:39;;;;;;;4.60;1.35;;;8.60;99.90;;;;;;4892586;29;20044;-68
2023/04/25 09:43:09;;;;;;;11.88;2.00;;;;;;;;;;4891544;29;20481;-68
2023/04/25 09:45:45;;;;;;;6.90;2.10;;;;;;;;;;4886543;29;20040;-68
2023/04/25 09:48:11;;;;;;;8.80;2.20;;;;;;;;;;4890619;29;20036;-68
2023/04/25 09:50:38;;;;;;;12.73;2.08;;;;;;;;;;4910142;29;20059;-69
2023/04/25 09:53:05;;;;;;;9.82;2.00;;;8.70;99.90;;;;;;4889995;29;20131;-67
2023/04/25 09:55:32;;;;;;;13.32;2.03;;;8.60;99.90;;;;;;4892013;29;20048;-69
2023/04/25 09:58:01;;;;;;;9.07;1.85;;;;;;;;;;4890654;29;20091;-70
2023/04/25 10:00:27;;;;;;;6.70;1.77;;;;;;;;;;4906328;29;20040;-70
2023/04/25 10:02:55;;;;;;;9.15;1.98;;;8.70;99.90;;;;;;4892581;29;20127;-71
2023/04/25 10:05:21;;;;;;;6.60;1.70;;;8.70;99.90;;;;;;4896156;29;20114;-69
2023/04/25 10:07:47;;;;;;;10.40;2.00;;;;;;;;;;4892328;29;20052;-68
2023/04/25 10:10:14;;;;;;;10.77;2.63;;;;;;;;;;4890228;29;20388;-69
2023/04/25 10:12:40;;;;;;;10.85;2.10;;;;;;;;;;4892573;29;20400;-69
2023/04/25 10:15:08;;;;;;;6.05;1.60;;;;;;;;;;4890378;29;20056;-70
2023/04/25 10:17:34;;;;;;;9.07;1.77;;;;;;;;;;4892939;29;20048;-69
2023/04/25 10:20:05;;;;;;;14.25;2.05;;;9.40;99.90;;;;;;4905930;29;20107;-68
2023/04/25 10:22:38;;;;;;;14.55;2.35;;;;;;;;;;4881929;29;20524;-68
2023/04/25 10:25:06;;;;;;;9.27;2.15;;;9.40;99.90;;;;;;4903418;29;20065;-68
2023/04/25 10:27:32;;;;;;;12.75;2.13;;;;;;;;;;4890943;29;20096;-68
2023/04/25 10:30:11;;;;;;;12.93;2.20;;;9.10;99.90;;;;;;4893145;29;20384;-68
2023/04/25 10:32:37;;;;;;;14.00;2.10;;;;;;;;;;4900248;29;20052;-68
2023/04/25 10:35:16;;;;;;;9.40;2.00;;;8.50;99.90;;;;;;4889564;29;20176;-68
2023/04/25 10:38:08;;;;;;;13.10;1.90;;;8.50;99.90;;;;;;4881820;29;20481;-69
2023/04/25 10:40:35;;;;;;;6.80;1.90;;;;;;;;;;4894864;29;20329;-68
2023/04/25 10:43:24;;;;;;;9.35;1.70;;;;;;;;;;4878281;29;20091;-69
2023/04/25 10:45:53;;;;;;;10.80;1.88;;;8.70;99.90;;;;;;4883276;29;20052;-68
2023/04/25 10:48:25;;;;;;;11.80;2.08;;;;;;;;;;4909139;29;20044;-68
2023/04/25 10:50:51;;;;;;;;;;;;;;;;;;4885334;29;20040;-69
2023/04/25 10:53:17;;;;;;;13.85;2.25;;;;;;;;;;4898377;29;19919;-69
2023/04/25 10:55:51;;;;;;;18.90;2.22;;;;;;;;;;4894831;29;20044;-69
2023/04/25 10:58:22;;;;;;;9.90;2.15;;;8.80;99.90;;;;;;4895188;29;20084;-69
2023/04/25 11:00:48;;;;;;;7.05;1.80;;;;;;;;;;4890210;29;20064;-70
2023/04/25 11:03:16;;;;;;;9.02;1.90;;;9.20;99.90;;;;;;4917437;29;20506;-70
2023/04/25 11:05:46;;;;;;;11.70;2.10;;;;;;;;;;4887689;29;20056;-69
2023/04/25 11:08:13;;;;;;;12.48;2.25;;;;;;;;;;4894521;29;20044;-68
2023/04/25 11:10:40;;;;;;;12.05;2.03;;;;;;;;;;4874928;29;20044;-68
2023/04/25 11:13:06;;;;;;;11.45;2.20;;;;;;;;;;4899868;29;20199;-69
2023/04/25 11:15:33;;;;;;;11.98;2.47;;;9.60;99.90;;;;;;4885772;29;20044;-69
2023/04/25 11:18:00;;;;;;;6.75;1.48;;;;;;;;;;4878342;29;20111;-69
2023/04/25 11:20:28;;;;;;;5.82;1.30;;;;;;;;;;4873325;29;20111;-70
2023/04/25 11:22:54;;;;;;;6.35;1.65;;;;;;;;;;4866013;29;20127;-69
2023/04/25 11:25:20;;;;;;;5.13;1.30;;;;;;;;;;4888224;29;20036;-68
2023/04/25 11:27:53;;;;;;;9.23;1.42;;;8.50;99.90;;;;;;4899830;29;20055;-69
2023/04/25 11:30:20;;;;;;;16.15;2.60;;;8.00;99.90;;;;;;4909040;29;20036;-68
2023/04/25 11:32:46;;;;;;;12.43;2.00;;;;;;;;;;4884246;29;20066;-69
2023/04/25 11:35:13;;;;;;;11.93;1.90;;;;;;;;;;4911482;29;20053;-68
2023/04/25 11:37:40;;;;;;;8.23;1.88;;;8.30;99.90;;;;;;4883343;29;20446;-68
2023/04/25 11:40:08;;;;;;;6.75;2.28;;;8.40;99.90;;;;;;4889925;29;20048;-69
2023/04/25 11:42:34;;;;;;;6.80;1.58;;;;;;;;;;4900744;29;20057;-67
2023/04/25 11:45:00;;;;;;;8.40;1.80;;;;;;;;;;4884168;29;20159;-68
2023/04/25 11:47:33;;;;;;;4.93;1.50;;;;;;;;;;4868211;29;20536;-68
2023/04/25 11:50:00;;;;;;;8.27;2.28;;;7.80;99.90;;;;;;4884197;29;20040;-69
2023/04/25 11:52:39;;;;;;;4.43;1.70;;;;;;;;;;4885056;29;20052;-69
2023/04/25 11:55:10;;;;;;;8.10;1.73;;;8.70;99.90;;;;;;4884310;29;20091;-69
2023/04/25 11:57:36;;;;;;;6.88;1.52;;;;;;;;;;4868684;29;20068;-68
2023/04/25 12:00:10;;;;;;;8.25;1.90;;;9.10;99.90;;;;;;4901036;29;20052;-68
2023/04/25 12:02:37;;;;;;;8.93;2.40;;;;;;;;;;4884096;29;20060;-69
2023/04/25 12:05:08;;;;;;;10.40;1.90;;;8.90;99.90;;;;;;4900975;29;20555;-69
2023/04/25 12:07:34;;;;;;;11.88;2.10;;;;;;;;;;4900909;29;20132;-69
2023/04/25 12:10:00;;;;;;;8.05;1.70;;;;;;;;;;4901142;29;20382;-67
2023/04/25 12:12:33;;;;;;;9.25;1.95;;;;;;;;;;4900911;29;20045;-68
2023/04/25 12:15:09;;;;;;;16.55;2.42;;;;;;;;;;4900850;29;20044;-68
2023/04/25 12:17:37;;;;;;;3.85;1.30;;;;;;;;;;4882691;29;20136;-67
2023/04/25 12:20:07;;;;;;;6.50;1.80;;;;;;;;;;4900114;29;20056;-68
2023/04/25 12:22:34;;;;;;;6.18;1.90;;;9.80;99.90;;;;;;4883709;29;20052;-67
2023/04/25 12:25:00;;;;;;;6.30;1.88;;;;;;;;;;4883883;29;20048;-67
2023/04/25 12:27:27;;;;;;;8.73;1.55;;;;;;;;;;4868034;29;20131;-68
2023/04/25 12:29:56;;;;;;;10.20;1.80;;;;;;;;;;4883459;29;20165;-68
2023/04/25 12:32:23;;;;;;;8.60;1.60;;;;;;;;;;4884495;29;20052;-68
2023/04/25 12:34:49;;;;;;;8.13;2.03;;;;;;;;;;4868588;29;20409;-68
2023/04/25 12:37:15;;;;;;;9.88;2.50;;;;;;;;;;4883758;29;20048;-69
2023/04/25 12:39:41;;;;;;;8.82;2.10;;;;;;;;;;4883584;29;20052;-69
2023/04/25 12:42:11;;;;;;;8.02;2.00;;;;;;;;;;4883515;29;20053;-67
2023/04/25 12:44:37;;;;;;;5.72;1.77;;;;;;;;;;4883508;29;20052;-68
2023/04/25 12:47:03;;;;;;;11.48;2.03;;;;;;;;;;4883329;29;20055;-68
2023/04/25 12:49:29;;;;;;;11.10;2.25;;;;;;;;;;4883328;29;20040;-68
2023/04/25 12:51:55;;;;;;;9.73;1.90;;;;;;;;;;4883540;29;20100;-68
2023/04/25 12:54:21;;;;;;;8.60;2.08;;;;;;;;;;4883339;29;20091;-68
2023/04/25 12:56:47;;;;;;;5.75;1.70;;;9.40;99.90;;;;;;4883156;29;20080;-67
2023/04/25 12:59:13;;;;;;;5.93;1.63;;;;;;;;;;4868085;29;20088;-68
2023/04/25 13:01:40;;;;;;;9.27;2.55;;;;;;;;;;4883380;29;20078;-68
2023/04/25 13:04:06;;;;;;;12.80;3.08;;;;;;;;;;4883267;29;20478;-68
2023/04/25 13:06:32;;;;;;;6.50;1.60;;;;;;;;;;4883026;29;20123;-69
2023/04/25 13:08:58;;;;;;;9.82;1.67;;;;;;;;;;4899747;29;20049;-68
2023/04/25 13:11:24;;;;;;;9.25;2.13;;;;;;;;;;4867552;29;20049;-68
2023/04/25 13:13:50;;;;;;;5.63;1.90;;;;;;;;;;4882844;29;20049;-69
2023/04/25 13:16:17;;;;;;;11.73;2.40;;;;;;;;;;4882933;29;20502;-68
2023/04/25 13:18:43;;;;;;;7.18;1.55;;;;;;;;;;4882589;29;20560;-68
2023/04/25 13:21:12;;;;;;;8.88;2.15;;;;;;;;;;4882498;29;20446;-69
2023/04/25 13:23:38;;;;;;;9.63;1.88;;;;;;;;;;4882726;29;20056;-69
2023/04/25 13:26:05;;;;;;;7.68;1.60;;;;;;;;;;4867326;29;20080;-69
2023/04/25 13:28:31;;;;;;;8.95;1.67;;;;;;;;;;4883005;29;20506;-69
2023/04/25 13:30:57;;;;;;;6.68;1.48;;;;;;;;;;4882717;29;20430;-69
2023/04/25 13:33:24;;;;;;;4.32;1.45;;;;;;;;;;4882787;29;20076;-69
2023/04/25 13:35:53;;;;;;;7.50;1.75;;;;;;;;;;4899452;29;20056;-69
2023/04/25 13:38:23;;;;;;;7.13;2.03;;;;;;;;;;4882449;29;20048;-69
2023/04/25 13:40:50;;;;;;;7.78;1.95;;;10.90;99.90;;;;;;4882536;29;20055;-69
2023/04/25 13:43:16;;;;;;;9.02;1.90;;;;;;;;;;4882827;29;20401;-69
2023/04/25 13:45:42;;;;;;;11.90;3.25;;;;;;;;;;4899439;29;20088;-69
2023/04/25 13:48:08;;;;;;;7.22;1.92;;;;;;;;;;4899315;29;20074;-68
2023/04/25 13:50:35;;;;;;;9.40;2.08;;;;;;;;;;4882374;29;20044;-69
2023/04/25 13:53:01;;;;;;;10.13;1.90;;;;;;;;;;4882658;29;20052;-68
2023/04/25 13:55:27;;;;;;;9.27;1.88;;;;;;;;;;4866802;29;20115;-69
2023/04/25 13:57:53;;;;;;;7.60;1.60;;;;;;;;;;4866819;29;20083;-68
2023/04/25 14:00:20;;;;;;;7.75;1.70;;;;;;;;;;4881465;29;20053;-68
2023/04/25 14:02:46;;;;;;;5.90;1.52;;;;;;;;;;4881961;29;20049;-69
2023/04/25 14:05:12;;;;;;;8.25;1.52;;;;;;;;;;4898765;29;20092;-68
2023/04/25 14:07:39;;;;;;;6.90;1.77;;;;;;;;;;4882119;29;20044;-68
2023/04/25 14:10:05;;;;;;;5.93;1.77;;;9.50;99.90;;;;;;4866542;29;20207;-68
2023/04/25 14:12:31;;;;;;;9.00;2.13;;;;;;;;;;4881994;29;20051;-69
2023/04/25 14:14:58;;;;;;;6.82;2.40;;;;;;;;;;4866551;29;20053;-69
2023/04/25 14:17:24;;;;;;;5.78;1.73;;;;;;;;;;4899058;29;20045;-68
2023/04/25 14:19:50;;;;;;;7.15;2.15;;;10.40;99.90;;;;;;4881983;29;20048;-69